Time;durP1;ratioP1;P1;durP2;ratioP2;P2;SDS_P1;SDS_P2;PMS_P1;PMS_P2;Temp;Humidity;BMP_temperature;BMP_pressure;BME280_temperature;BME280_humidity;BME280_pressure;Samples;Min_cycle;Max_cycle;Signal;HPM_P1;HPM_P2
2021/08/27 00:00:35;;;;;;;4.63;3.80;;;12.80;99.90;;;;;;6264588;22;20727;-87
2021/08/27 00:03:00;;;;;;;7.63;3.67;;;12.80;99.90;;;;;;6266414;22;20720;-87
2021/08/27 00:05:26;;;;;;;4.33;3.77;;;12.80;99.90;;;;;;6265962;22;20396;-88
2021/08/27 00:07:52;;;;;;;6.67;4.00;;;12.70;99.90;;;;;;6265224;22;20166;-87
2021/08/27 00:10:18;;;;;;;3.90;3.50;;;12.80;99.90;;;;;;6263910;22;20589;-87
2021/08/27 00:12:44;;;;;;;6.33;4.27;;;12.80;99.90;;;;;;6266220;22;20170;-87
2021/08/27 00:15:10;;;;;;;3.33;3.03;;;12.80;99.90;;;;;;6265266;22;20472;-88
2021/08/27 00:17:36;;;;;;;8.43;3.50;;;12.80;99.90;;;;;;6266027;22;20479;-87
2021/08/27 00:20:04;;;;;;;4.13;3.70;;;12.90;99.90;;;;;;6264969;22;20404;-87
2021/08/27 00:22:29;;;;;;;6.73;3.60;;;13.00;99.90;;;;;;6209282;23;20194;-87
2021/08/27 00:24:55;;;;;;;4.80;3.47;;;13.10;99.90;;;;;;6209500;23;20394;-87
2021/08/27 00:27:21;;;;;;;5.60;3.73;;;13.10;99.90;;;;;;6210169;23;20202;-88
2021/08/27 00:29:47;;;;;;;4.07;3.60;;;13.20;99.90;;;;;;6202765;23;20200;-87
2021/08/27 00:32:12;;;;;;;3.93;3.53;;;13.20;99.90;;;;;;6209584;23;20402;-88
2021/08/27 00:34:38;;;;;;;5.33;3.90;;;13.10;99.90;;;;;;6206757;23;20155;-88
2021/08/27 00:37:05;;;;;;;5.60;4.10;;;13.10;99.90;;;;;;6209137;23;20168;-88
2021/08/27 00:39:31;;;;;;;7.30;4.43;;;13.10;99.90;;;;;;6208714;23;20213;-88
2021/08/27 00:41:58;;;;;;;5.60;4.00;;;13.00;99.90;;;;;;6209102;23;20438;-88
2021/08/27 00:44:24;;;;;;;9.30;4.30;;;12.80;99.90;;;;;;6208801;23;20402;-88
2021/08/27 00:46:50;;;;;;;9.93;4.43;;;12.80;99.90;;;;;;6208852;23;20950;-87
2021/08/27 00:49:16;;;;;;;4.50;3.97;;;12.70;99.90;;;;;;6208976;23;20640;-88
2021/08/27 00:51:43;;;;;;;8.07;3.77;;;12.70;99.90;;;;;;6208826;23;20238;-88
2021/08/27 00:54:09;;;;;;;5.87;3.90;;;12.80;99.90;;;;;;6208533;23;20397;-87
2021/08/27 00:56:35;;;;;;;4.83;3.90;;;12.80;99.90;;;;;;6209256;23;20524;-87
2021/08/27 00:59:01;;;;;;;6.13;4.00;;;12.80;99.90;;;;;;6207607;23;20433;-88
2021/08/27 01:01:27;;;;;;;5.83;4.27;;;12.80;99.90;;;;;;6209022;23;20162;-87
2021/08/27 01:03:56;;;;;;;5.47;4.20;;;12.70;99.90;;;;;;6209117;23;20880;-87
2021/08/27 01:06:31;;;;;;;5.90;4.17;;;12.70;99.90;;;;;;6209763;23;20884;-88
2021/08/27 01:09:03;;;;;;;4.17;3.50;;;12.70;99.90;;;;;;6209412;23;20409;-87
2021/08/27 01:11:54;;;;;;;4.80;4.00;;;12.70;99.90;;;;;;6209146;23;20425;-88
2021/08/27 01:14:28;;;;;;;5.30;3.90;;;12.80;99.90;;;;;;6208686;23;20923;-88
2021/08/27 01:17:02;;;;;;;4.83;4.20;;;12.80;99.90;;;;;;6210554;23;20848;-88
2021/08/27 01:20:12;;;;;;;6.03;4.13;;;12.80;99.90;;;;;;6208925;23;20406;-88
2021/08/27 01:22:57;;;;;;;5.67;3.57;;;12.90;99.90;;;;;;6208900;23;20516;-88
2021/08/27 01:25:23;;;;;;;5.43;3.87;;;13.00;99.90;;;;;;6233967;23;20694;-87
2021/08/27 01:27:54;;;;;;;4.23;3.80;;;13.00;99.90;;;;;;6234164;23;20707;-88
2021/08/27 01:30:40;;;;;;;6.97;4.40;;;12.80;99.90;;;;;;6233313;23;20433;-87
2021/08/27 01:33:16;;;;;;;6.43;3.90;;;12.80;99.90;;;;;;6233589;23;20489;-87
2021/08/27 01:35:47;;;;;;;4.37;3.97;;;12.80;99.90;;;;;;6235397;23;20405;-87
2021/08/27 01:38:15;;;;;;;4.57;4.13;;;12.80;99.90;;;;;;6233393;23;20861;-88
2021/08/27 01:40:49;;;;;;;5.10;3.83;;;12.80;99.90;;;;;;6232967;23;20390;-87
2021/08/27 01:43:16;;;;;;;6.90;4.00;;;12.90;99.90;;;;;;6234497;23;20446;-87
2021/08/27 01:45:46;;;;;;;7.00;4.50;;;12.80;99.90;;;;;;6235969;23;20935;-87
2021/08/27 01:48:13;;;;;;;4.10;3.70;;;12.80;99.90;;;;;;6233894;23;20432;-87
2021/08/27 01:50:42;;;;;;;5.00;4.10;;;12.80;99.90;;;;;;6235276;23;20436;-87
2021/08/27 01:53:09;;;;;;;5.30;4.20;;;12.70;99.90;;;;;;6232874;23;20402;-87
2021/08/27 01:55:38;;;;;;;6.30;4.60;;;12.80;99.90;;;;;;6208551;23;20736;-87
2021/08/27 01:58:05;;;;;;;7.53;4.10;;;12.70;99.90;;;;;;6233716;23;20398;-87
2021/08/27 02:00:31;;;;;;;8.70;4.77;;;12.70;99.90;;;;;;6235057;23;20720;-87
2021/08/27 02:02:58;;;;;;;6.27;4.67;;;12.60;99.90;;;;;;6232942;23;20441;-87
2021/08/27 02:05:26;;;;;;;4.80;4.10;;;12.60;99.90;;;;;;6233430;23;20461;-87
2021/08/27 02:07:53;;;;;;;5.13;3.77;;;12.60;99.90;;;;;;6234319;23;20406;-87
2021/08/27 02:10:18;;;;;;;3.93;3.40;;;12.70;99.90;;;;;;6234409;23;20469;-88
2021/08/27 02:12:44;;;;;;;7.33;4.07;;;12.90;99.90;;;;;;6235385;23;20429;-87
2021/08/27 02:15:11;;;;;;;6.87;4.27;;;12.80;99.90;;;;;;6208938;23;20241;-88
2021/08/27 02:17:37;;;;;;;6.07;3.80;;;12.80;99.90;;;;;;6235048;23;20481;-88
2021/08/27 02:20:04;;;;;;;5.10;3.93;;;12.70;99.90;;;;;;6232014;22;20385;-88
2021/08/27 02:22:33;;;;;;;4.57;4.03;;;12.70;99.90;;;;;;6207769;23;20433;-88
2021/08/27 02:25:06;;;;;;;5.80;3.87;;;12.70;99.90;;;;;;6207317;23;20484;-88
2021/08/27 02:27:34;;;;;;;4.33;3.77;;;12.70;99.90;;;;;;6207938;23;20432;-89
2021/08/27 02:30:01;;;;;;;6.43;4.20;;;12.70;99.90;;;;;;6209354;23;20405;-88
2021/08/27 02:32:28;;;;;;;6.50;4.70;;;12.70;99.90;;;;;;6208725;23;20390;-88
2021/08/27 02:34:58;;;;;;;4.47;4.03;;;12.80;99.90;;;;;;6210308;23;20436;-88
2021/08/27 02:37:25;;;;;;;4.87;3.50;;;12.90;99.90;;;;;;6208140;23;20496;-88
2021/08/27 02:39:51;;;;;;;6.20;4.40;;;12.90;99.90;;;;;;6208356;23;20477;-88
2021/08/27 02:42:18;;;;;;;5.40;3.93;;;12.90;99.90;;;;;;6207803;23;20932;-88
2021/08/27 02:44:44;;;;;;;5.53;4.20;;;12.90;99.90;;;;;;6206956;23;20207;-88
2021/08/27 02:47:10;;;;;;;5.30;4.57;;;12.80;99.90;;;;;;6209448;23;20394;-88
2021/08/27 02:49:36;;;;;;;7.13;4.20;;;12.80;99.90;;;;;;6206693;23;20398;-88
2021/08/27 02:52:30;;;;;;;3.90;3.60;;;12.70;99.90;;;;;;6209622;23;20158;-88
2021/08/27 02:55:16;;;;;;;5.17;4.13;;;12.80;99.90;;;;;;6207084;23;20397;-88
2021/08/27 02:57:45;;;;;;;4.57;4.17;;;12.80;99.90;;;;;;6208064;23;20477;-88
2021/08/27 03:00:12;;;;;;;3.63;3.30;;;12.70;99.90;;;;;;6207549;23;20433;-87
2021/08/27 03:02:39;;;;;;;4.97;4.00;;;12.70;99.90;;;;;;6208327;23;20432;-87
2021/08/27 03:05:11;;;;;;;5.80;4.13;;;12.70;99.90;;;;;;6208244;23;20394;-87
2021/08/27 03:07:42;;;;;;;4.60;3.90;;;12.70;99.90;;;;;;6209034;23;20393;-87
2021/08/27 03:10:14;;;;;;;5.50;4.53;;;12.70;99.90;;;;;;6208431;23;20397;-89
2021/08/27 03:12:55;;;;;;;5.73;4.73;;;12.60;99.90;;;;;;6209722;23;20426;-89
2021/08/27 03:15:27;;;;;;;6.90;4.57;;;12.60;99.90;;;;;;6207193;23;20472;-89
2021/08/27 03:17:58;;;;;;;6.13;4.07;;;12.60;99.90;;;;;;6208495;23;20382;-90
2021/08/27 03:20:39;;;;;;;8.60;5.20;;;12.60;99.90;;;;;;6206751;23;20424;-89
2021/08/27 03:23:09;;;;;;;5.10;4.00;;;12.60;99.90;;;;;;6208421;23;20480;-88
2021/08/27 03:25:43;;;;;;;6.60;5.40;;;12.60;99.90;;;;;;6208374;23;20891;-89
2021/08/27 03:28:15;;;;;;;5.73;5.13;;;12.60;99.90;;;;;;6207858;23;20398;-89
2021/08/27 03:30:45;;;;;;;6.23;4.60;;;12.60;99.90;;;;;;6206018;23;20389;-89
2021/08/27 03:33:12;;;;;;;5.93;4.93;;;12.60;99.90;;;;;;6207553;23;20390;-89
2021/08/27 03:35:38;;;;;;;9.77;5.60;;;12.60;99.90;;;;;;6209663;23;20451;-89
2021/08/27 03:38:05;;;;;;;6.43;5.23;;;12.50;99.90;;;;;;6210265;23;20903;-89
2021/08/27 03:40:32;;;;;;;8.30;4.70;;;12.60;99.90;;;;;;6206992;23;20466;-89
2021/08/27 03:43:00;;;;;;;4.90;4.37;;;12.70;99.90;;;;;;6209980;23;20723;-88
2021/08/27 03:45:29;;;;;;;8.47;4.77;;;12.70;99.90;;;;;;6209788;23;20477;-88
2021/08/27 03:47:55;;;;;;;6.50;5.10;;;12.80;99.90;;;;;;6209368;23;20389;-88
2021/08/27 03:50:23;;;;;;;5.50;5.00;;;12.80;99.90;;;;;;6207552;23;20396;-88
2021/08/27 03:52:51;;;;;;;6.20;4.47;;;12.70;99.90;;;;;;6210438;23;20209;-88
2021/08/27 03:55:19;;;;;;;5.53;5.00;;;12.70;99.90;;;;;;6209779;23;20397;-89
2021/08/27 03:57:47;;;;;;;7.10;4.80;;;12.60;99.90;;;;;;6208686;23;20390;-89
2021/08/27 04:00:15;;;;;;;5.50;4.93;;;12.70;99.90;;;;;;6208799;23;20394;-88
2021/08/27 04:02:41;;;;;;;6.93;5.50;;;12.80;99.90;;;;;;6210663;23;20429;-89
2021/08/27 04:05:15;;;;;;;5.77;5.13;;;12.80;99.90;;;;;;6209084;23;20404;-88
2021/08/27 04:07:41;;;;;;;6.20;5.27;;;12.70;99.90;;;;;;6209810;23;20396;-89
2021/08/27 04:10:09;;;;;;;5.30;4.67;;;12.70;99.90;;;;;;6211157;23;20599;-89
2021/08/27 04:12:36;;;;;;;6.57;4.83;;;12.70;99.90;;;;;;6208873;23;20393;-89
2021/08/27 04:15:03;;;;;;;6.57;4.50;;;12.70;99.90;;;;;;6210151;23;20473;-89
2021/08/27 04:17:29;;;;;;;6.77;4.70;;;12.90;99.90;;;;;;6211715;23;20509;-89
2021/08/27 04:19:54;;;;;;;9.77;6.13;;;12.90;99.90;;;;;;6210831;23;20390;-89
2021/08/27 04:22:20;;;;;;;8.43;4.93;;;12.90;99.90;;;;;;6237425;22;21019;-90
2021/08/27 04:24:46;;;;;;;6.17;4.40;;;12.90;99.90;;;;;;6264538;22;20166;-89
2021/08/27 04:27:11;;;;;;;7.07;4.77;;;13.00;99.90;;;;;;6266816;22;20514;-90
2021/08/27 04:29:37;;;;;;;6.60;5.17;;;12.90;99.90;;;;;;6265899;22;20783;-89
2021/08/27 04:32:03;;;;;;;5.43;4.83;;;13.00;99.90;;;;;;6264948;22;20536;-89
2021/08/27 04:34:29;;;;;;;8.57;5.57;;;12.90;99.90;;;;;;6239680;22;20584;-88
2021/08/27 04:36:54;;;;;;;7.33;6.60;;;12.90;99.90;;;;;;6267130;22;20385;-89
2021/08/27 04:39:21;;;;;;;10.97;8.83;;;12.80;99.90;;;;;;6265014;22;20215;-88
2021/08/27 04:41:47;;;;;;;19.20;12.67;;;12.80;99.90;;;;;;6265903;22;20552;-89
2021/08/27 04:44:13;;;;;;;16.20;14.20;;;12.80;99.90;;;;;;6239229;22;20443;-88
2021/08/27 04:46:39;;;;;;;14.57;13.07;;;12.90;99.90;;;;;;6266157;22;20162;-89
2021/08/27 04:49:04;;;;;;;14.40;12.90;;;12.90;99.90;;;;;;6265584;22;20170;-89
2021/08/27 04:51:30;;;;;;;14.33;11.27;;;12.90;99.90;;;;;;6265173;22;20385;-89
2021/08/27 04:53:56;;;;;;;11.90;10.70;;;12.90;99.90;;;;;;6265466;22;20601;-91
2021/08/27 04:56:21;;;;;;;12.27;10.30;;;12.90;99.90;;;;;;6264339;22;20166;-88
2021/08/27 04:58:52;;;;;;;15.73;10.83;;;12.80;99.90;;;;;;6265231;22;20165;-89
2021/08/27 05:01:20;;;;;;;10.80;9.70;;;12.90;99.90;;;;;;6266681;22;20193;-90
2021/08/27 05:03:48;;;;;;;11.30;9.97;;;12.90;99.90;;;;;;6243164;22;20441;-90
2021/08/27 05:06:13;;;;;;;11.37;9.27;;;12.80;99.90;;;;;;6268260;22;22034;-91
2021/08/27 05:08:39;;;;;;;11.93;9.20;;;12.80;99.90;;;;;;6267383;22;20859;-90
2021/08/27 05:11:07;;;;;;;9.73;8.87;;;12.80;99.90;;;;;;6264377;22;20154;-90
2021/08/27 05:13:32;;;;;;;10.60;7.60;;;12.80;99.90;;;;;;6263244;22;20979;-88
2021/08/27 05:15:58;;;;;;;9.50;7.87;;;12.80;99.90;;;;;;6266818;22;20159;-89
2021/08/27 05:18:24;;;;;;;8.93;8.00;;;12.80;99.90;;;;;;6268021;22;20163;-90
2021/08/27 05:20:50;;;;;;;9.43;8.50;;;12.80;99.90;;;;;;6266210;22;20608;-90
2021/08/27 05:23:15;;;;;;;12.70;8.60;;;12.80;99.90;;;;;;6267129;22;20531;-90
2021/08/27 05:25:41;;;;;;;8.70;7.40;;;12.80;99.90;;;;;;6267602;22;20750;-90
2021/08/27 05:28:06;;;;;;;14.60;8.87;;;12.90;99.90;;;;;;6267398;22;20158;-88
2021/08/27 05:30:32;;;;;;;9.00;7.40;;;12.90;99.90;;;;;;6266055;22;20173;-89
2021/08/27 05:33:01;;;;;;;11.50;8.77;;;13.00;99.90;;;;;;6266623;22;20162;-88
2021/08/27 05:35:26;;;;;;;10.30;8.03;;;13.00;99.90;;;;;;6267416;22;20544;-88
2021/08/27 05:37:52;;;;;;;9.53;8.53;;;13.00;99.90;;;;;;6265737;22;20482;-87
2021/08/27 05:40:18;;;;;;;8.97;8.03;;;13.00;99.90;;;;;;6267660;22;20170;-88
2021/08/27 05:42:43;;;;;;;10.83;9.20;;;13.00;99.90;;;;;;6266641;22;20178;-88
2021/08/27 05:45:22;;;;;;;11.67;9.60;;;13.00;99.90;;;;;;6241335;22;20177;-87
2021/08/27 05:47:48;;;;;;;17.03;10.00;;;13.00;99.90;;;;;;6292721;22;20384;-87
2021/08/27 05:50:16;;;;;;;12.47;10.20;;;13.00;99.90;;;;;;6266283;22;21123;-88
2021/08/27 05:52:42;;;;;;;35.80;12.60;;;13.00;99.90;;;;;;6266626;22;20237;-87
2021/08/27 05:55:08;;;;;;;23.40;13.90;;;12.90;99.90;;;;;;6264726;22;20403;-87
2021/08/27 05:57:34;;;;;;;19.63;14.20;;;13.00;99.90;;;;;;6264623;22;20380;-88
2021/08/27 06:00:01;;;;;;;18.83;13.73;;;13.10;99.90;;;;;;6267048;22;20401;-88
2021/08/27 06:02:26;;;;;;;15.40;13.40;;;13.20;99.90;;;;;;6265975;22;20493;-88
2021/08/27 06:04:52;;;;;;;15.93;14.23;;;13.30;99.90;;;;;;6266244;22;20480;-91
2021/08/27 06:07:18;;;;;;;17.17;13.93;;;13.30;99.90;;;;;;6267050;22;20162;-88
2021/08/27 06:09:43;;;;;;;17.53;14.20;;;13.30;99.90;;;;;;6265735;22;20229;-89
2021/08/27 06:12:10;;;;;;;16.70;12.90;;;13.30;99.90;;;;;;6265257;22;20620;-88
2021/08/27 06:14:36;;;;;;;16.33;13.50;;;13.40;99.90;;;;;;6266188;22;20225;-88
2021/08/27 06:17:01;;;;;;;17.30;14.27;;;13.40;99.90;;;;;;6267121;22;20397;-88
2021/08/27 06:19:27;;;;;;;19.97;14.47;;;13.40;99.90;;;;;;6265762;22;20185;-88
2021/08/27 06:21:55;;;;;;;19.97;14.00;;;13.40;99.90;;;;;;6267232;22;20265;-96
2021/08/27 06:24:21;;;;;;;16.23;13.20;;;13.50;99.90;;;;;;6267437;22;20216;-88
2021/08/27 06:26:46;;;;;;;16.10;13.23;;;13.50;99.90;;;;;;6268614;22;20388;-90
2021/08/27 06:29:14;;;;;;;18.00;13.63;;;13.60;99.90;;;;;;6270009;22;20162;-89
2021/08/27 06:31:40;;;;;;;18.20;13.37;;;13.50;99.90;;;;;;6267510;22;20240;-90
2021/08/27 06:34:06;;;;;;;17.40;12.97;;;13.40;99.90;;;;;;6267168;22;20397;-89
2021/08/27 06:36:33;;;;;;;14.03;12.43;;;13.40;99.90;;;;;;6263742;22;20169;-88
2021/08/27 06:39:09;;;;;;;14.73;11.60;;;13.30;99.90;;;;;;6265276;22;20177;-89
2021/08/27 06:41:43;;;;;;;14.67;11.73;;;13.40;99.90;;;;;;6265764;22;20479;-88
2021/08/27 06:44:11;;;;;;;12.50;10.83;;;13.40;99.90;;;;;;6267093;22;20514;-88
2021/08/27 06:46:43;;;;;;;11.67;10.67;;;13.30;99.90;;;;;;6266691;22;20389;-88
2021/08/27 06:49:36;;;;;;;12.47;11.17;;;13.40;99.90;;;;;;6266904;22;20470;-88
2021/08/27 06:52:04;;;;;;;12.00;9.93;;;13.30;99.90;;;;;;6240996;22;20393;-88
2021/08/27 06:54:32;;;;;;;12.87;9.90;;;13.40;99.90;;;;;;6242039;22;20458;-89
2021/08/27 06:56:59;;;;;;;10.90;9.70;;;13.50;99.90;;;;;;6288106;22;20875;-88
2021/08/27 06:59:35;;;;;;;11.03;9.37;;;13.60;99.90;;;;;;6269446;22;20393;-88
2021/08/27 07:02:04;;;;;;;9.60;8.60;;;13.60;99.90;;;;;;6292519;22;20432;-89
2021/08/27 07:04:31;;;;;;;12.97;9.03;;;13.70;99.90;;;;;;6243130;22;20496;-89
2021/08/27 07:07:04;;;;;;;15.43;9.37;;;13.80;99.90;;;;;;6243358;22;20516;-89
2021/08/27 07:09:33;;;;;;;8.90;8.00;;;14.10;99.90;;;;;;6240845;22;20459;-89
2021/08/27 07:11:58;;;;;;;8.70;7.80;;;14.20;99.90;;;;;;6267357;22;20393;-89
2021/08/27 07:14:26;;;;;;;9.37;7.93;;;14.30;99.90;;;;;;6267389;22;20416;-88
2021/08/27 07:17:01;;;;;;;7.13;6.53;;;14.30;99.90;;;;;;6263709;22;20169;-89
2021/08/27 07:19:27;;;;;;;7.87;6.30;;;14.10;99.90;;;;;;6262477;22;20493;-89
2021/08/27 07:21:53;;;;;;;6.93;6.37;;;13.80;99.90;;;;;;6264354;22;20891;-89
2021/08/27 07:24:19;;;;;;;6.60;5.83;;;13.80;99.90;;;;;;6265321;22;20268;-89
2021/08/27 07:26:45;;;;;;;6.37;5.47;;;14.10;99.90;;;;;;6291178;22;20401;-89
2021/08/27 07:29:12;;;;;;;5.33;4.90;;;14.50;99.90;;;;;;6265508;22;20405;-89
2021/08/27 07:31:37;;;;;;;5.57;4.50;;;14.90;99.90;;;;;;6237045;22;20446;-89
2021/08/27 07:34:03;;;;;;;5.20;4.70;;;15.50;99.90;;;;;;6266858;22;20397;-89
2021/08/27 07:36:29;;;;;;;7.73;4.20;;;15.70;99.90;;;;;;6266366;22;20627;-89
2021/08/27 07:38:55;;;;;;;9.43;4.77;;;15.60;99.90;;;;;;6264974;22;20405;-88
2021/08/27 07:41:21;;;;;;;4.73;4.03;;;15.00;99.90;;;;;;6265731;22;20162;-88
2021/08/27 07:43:56;;;;;;;6.50;4.20;;;14.60;99.90;;;;;;6265825;22;20463;-88
2021/08/27 07:46:35;;;;;;;6.03;4.60;;;14.50;99.90;;;;;;6291986;22;20211;-89
2021/08/27 07:49:01;;;;;;;8.70;4.73;;;14.60;99.90;;;;;;6240363;22;20403;-89
2021/08/27 07:51:27;;;;;;;7.67;4.43;;;14.80;99.90;;;;;;6266102;22;20393;-89
2021/08/27 07:53:53;;;;;;;4.13;3.37;;;15.00;99.90;;;;;;6290854;22;20384;-89
2021/08/27 07:56:19;;;;;;;4.10;3.20;;;15.00;99.90;;;;;;6266415;22;20616;-89
2021/08/27 07:58:46;;;;;;;5.10;3.30;;;14.90;99.90;;;;;;6266605;22;20150;-89
2021/08/27 08:01:11;;;;;;;5.73;3.20;;;14.90;99.90;;;;;;6265423;22;20162;-89
2021/08/27 08:03:37;;;;;;;3.07;2.87;;;15.20;99.90;;;;;;6265344;22;20828;-89
2021/08/27 08:06:03;;;;;;;3.33;2.90;;;15.40;99.90;;;;;;6268059;22;20167;-89
2021/08/27 08:08:29;;;;;;;3.63;3.20;;;15.60;99.90;;;;;;6265559;22;20454;-89
2021/08/27 08:10:59;;;;;;;4.60;2.60;;;15.80;99.90;;;;;;6267379;22;20157;-89
2021/08/27 08:13:25;;;;;;;3.47;3.17;;;15.80;99.90;;;;;;6266304;22;20405;-89
2021/08/27 08:15:51;;;;;;;3.20;2.70;;;15.50;99.90;;;;;;6266208;22;20154;-89
2021/08/27 08:18:19;;;;;;;4.37;2.90;;;15.30;99.90;;;;;;6239796;22;20224;-88
2021/08/27 08:20:47;;;;;;;2.30;2.20;;;15.40;99.90;;;;;;6238895;22;20166;-89
2021/08/27 08:23:13;;;;;;;2.57;2.40;;;15.50;99.90;;;;;;6267599;22;20539;-89
2021/08/27 08:25:39;;;;;;;3.40;2.27;;;15.40;99.90;;;;;;6268200;22;20162;-89
2021/08/27 08:28:07;;;;;;;2.60;2.50;;;15.40;99.90;;;;;;6268711;22;20454;-89
2021/08/27 08:30:33;;;;;;;3.90;2.53;;;15.10;99.90;;;;;;6267660;22;20201;-89
2021/08/27 08:32:59;;;;;;;4.60;2.87;;;15.40;99.90;;;;;;6266697;22;20664;-89
2021/08/27 08:35:24;;;;;;;2.67;2.47;;;15.60;99.90;;;;;;6268067;22;20158;-89
2021/08/27 08:37:51;;;;;;;2.77;2.57;;;15.60;99.90;;;;;;6267165;22;20489;-88
2021/08/27 08:40:16;;;;;;;2.80;2.20;;;15.40;99.90;;;;;;6266964;22;20163;-88
2021/08/27 08:42:43;;;;;;;2.17;2.07;;;15.50;99.90;;;;;;6269073;22;20420;-88
2021/08/27 08:45:10;;;;;;;2.47;2.37;;;15.30;99.90;;;;;;6267870;22;20401;-88
2021/08/27 08:47:42;;;;;;;2.73;1.90;;;15.30;99.90;;;;;;6269377;22;20593;-89
2021/08/27 08:50:09;;;;;;;2.30;2.10;;;15.30;99.90;;;;;;6268136;22;20396;-89
2021/08/27 08:52:36;;;;;;;3.33;2.43;;;15.20;99.90;;;;;;6268042;22;20488;-89
2021/08/27 08:55:03;;;;;;;2.37;2.00;;;15.40;99.90;;;;;;6268642;22;20401;-89
2021/08/27 08:57:30;;;;;;;2.33;2.13;;;15.80;99.90;;;;;;6266453;22;20446;-89
2021/08/27 08:59:56;;;;;;;4.10;2.20;;;16.20;99.90;;;;;;6267600;22;20396;-90
2021/08/27 09:02:22;;;;;;;5.67;2.93;;;16.80;99.90;;;;;;6268343;22;20751;-89
2021/08/27 09:04:47;;;;;;;2.50;2.40;;;16.80;99.90;;;;;;6265775;22;20481;-89
2021/08/27 09:07:14;;;;;;;2.27;2.07;;;16.70;99.90;;;;;;6266772;22;20393;-89
2021/08/27 09:09:42;;;;;;;1.83;1.73;;;16.60;99.90;;;;;;6266313;22;20466;-90
2021/08/27 09:12:26;;;;;;;2.10;1.43;;;16.40;99.90;;;;;;6266595;22;20389;-89
2021/08/27 09:15:11;;;;;;;1.50;1.40;;;16.10;99.90;;;;;;6265164;22;20397;-89
2021/08/27 09:17:43;;;;;;;2.20;1.60;;;16.40;99.90;;;;;;6268218;22;20401;-88
2021/08/27 09:20:14;;;;;;;1.93;1.50;;;16.60;99.90;;;;;;6265753;22;20412;-89
2021/08/27 09:22:57;;;;;;;3.23;1.63;;;16.60;99.90;;;;;;6211939;23;20432;-89
2021/08/27 09:25:29;;;;;;;3.83;1.60;;;16.60;99.90;;;;;;6211465;23;20884;-89
2021/08/27 09:28:21;;;;;;;1.87;1.60;;;17.30;99.90;;;;;;6210501;23;20386;-89
2021/08/27 09:30:57;;;;;;;2.83;1.50;;;17.30;99.90;;;;;;6174572;23;20779;-89
2021/08/27 09:33:26;;;;;;;1.60;1.10;;;17.20;99.90;;;;;;6212227;23;20432;-90
2021/08/27 09:36:04;;;;;;;4.10;1.60;;;17.00;99.90;;;;;;6213127;23;20382;-89
2021/08/27 09:38:35;;;;;;;1.67;1.20;;;16.90;99.40;;;;;;6213494;23;20906;-89
2021/08/27 09:41:13;;;;;;;1.67;1.30;;;16.90;99.90;;;;;;6237878;23;20396;-90
2021/08/27 09:43:54;;;;;;;3.80;2.10;;;17.00;99.90;;;;;;6211890;23;20447;-88
2021/08/27 09:46:41;;;;;;;3.87;1.83;;;16.70;99.90;;;;;;6212257;23;20401;-88
2021/08/27 09:49:33;;;;;;;1.97;1.70;;;16.80;99.90;;;;;;6212016;23;20398;-88
2021/08/27 09:52:08;;;;;;;1.43;1.33;;;16.60;99.90;;;;;;6207641;23;20386;-88
2021/08/27 09:54:42;;;;;;;1.37;1.27;;;16.40;99.90;;;;;;6211295;23;20468;-88
2021/08/27 09:57:12;;;;;;;2.73;1.80;;;16.40;99.90;;;;;;6212619;23;20830;-88
2021/08/27 09:59:47;;;;;;;2.10;1.50;;;16.30;99.90;;;;;;6211236;23;20393;-88
2021/08/27 10:02:17;;;;;;;2.07;1.50;;;16.50;99.90;;;;;;6210219;23;20404;-88
2021/08/27 10:04:57;;;;;;;3.40;1.40;;;16.70;99.90;;;;;;6234440;23;20926;-87
2021/08/27 10:07:34;;;;;;;3.30;1.87;;;16.40;99.90;;;;;;6201336;23;20382;-88
2021/08/27 10:10:02;;;;;;;3.00;1.70;;;16.30;99.90;;;;;;6198189;23;20459;-88
2021/08/27 10:12:33;;;;;;;3.70;1.67;;;16.20;99.90;;;;;;6178452;23;20400;-88
2021/08/27 10:15:00;;;;;;;1.80;1.60;;;16.40;99.90;;;;;;6204087;23;20405;-88
2021/08/27 10:17:26;;;;;;;3.33;1.47;;;16.30;99.90;;;;;;6203939;23;20429;-88
2021/08/27 10:19:54;;;;;;;3.33;1.80;;;16.10;99.90;;;;;;6228922;23;20537;-88
2021/08/27 10:22:22;;;;;;;2.33;1.97;;;15.90;99.90;;;;;;6207792;22;20760;-88
2021/08/27 10:24:49;;;;;;;1.50;1.40;;;16.10;99.90;;;;;;6260531;22;20420;-88
2021/08/27 10:27:17;;;;;;;2.20;2.00;;;15.90;99.90;;;;;;6261054;22;20897;-88
2021/08/27 10:29:54;;;;;;;2.60;1.70;;;15.90;99.90;;;;;;6259656;22;20413;-88
2021/08/27 10:32:41;;;;;;;1.67;1.57;;;15.90;99.90;;;;;;6285650;22;20393;-88
2021/08/27 10:35:30;;;;;;;2.00;1.80;;;16.10;99.90;;;;;;6258233;22;20799;-88
2021/08/27 10:37:57;;;;;;;1.97;1.87;;;16.20;99.90;;;;;;6260957;22;20385;-88
2021/08/27 10:40:24;;;;;;;3.00;1.70;;;16.30;99.90;;;;;;6261734;22;20393;-88
2021/08/27 10:42:58;;;;;;;1.87;1.53;;;16.40;99.90;;;;;;6259680;22;20424;-89
2021/08/27 10:45:52;;;;;;;3.27;2.20;;;16.40;99.90;;;;;;6261360;22;20396;-87
2021/08/27 10:48:26;;;;;;;2.40;2.00;;;16.20;99.90;;;;;;6224328;22;20401;-89
2021/08/27 10:50:57;;;;;;;2.47;2.13;;;16.20;99.90;;;;;;6231278;22;20468;-88
2021/08/27 10:53:37;;;;;;;3.87;1.97;;;16.20;99.90;;;;;;6232984;22;20878;-88
2021/08/27 10:56:09;;;;;;;2.43;1.60;;;16.10;99.90;;;;;;6260784;22;20408;-88
2021/08/27 10:58:55;;;;;;;2.07;1.80;;;16.60;99.90;;;;;;6261494;22;20488;-88
2021/08/27 11:01:32;;;;;;;4.70;2.53;;;16.90;99.60;;;;;;6260180;22;20393;-89
2021/08/27 11:04:24;;;;;;;2.67;2.33;;;16.70;99.80;;;;;;6284573;22;20527;-88
2021/08/27 11:06:51;;;;;;;3.47;2.40;;;16.90;99.50;;;;;;6229354;22;20421;-88
2021/08/27 11:09:29;;;;;;;4.73;2.80;;;17.20;99.20;;;;;;6233769;22;20444;-87
2021/08/27 11:12:07;;;;;;;2.50;2.30;;;17.10;99.10;;;;;;6199374;22;20488;-87
2021/08/27 11:14:34;;;;;;;2.70;2.50;;;16.90;99.20;;;;;;6258991;22;20447;-88
2021/08/27 11:17:03;;;;;;;3.63;2.63;;;16.90;99.10;;;;;;6233680;22;21013;-88
2021/08/27 11:19:31;;;;;;;2.63;2.43;;;17.00;99.50;;;;;;6233583;22;20661;-88
2021/08/27 11:22:26;;;;;;;4.13;2.73;;;17.40;99.10;;;;;;6229624;22;20400;-88
2021/08/27 11:25:05;;;;;;;2.53;2.33;;;17.70;99.60;;;;;;6221410;22;20404;-88
2021/08/27 11:27:36;;;;;;;7.47;3.97;;;17.60;98.90;;;;;;6259648;22;20432;-88
2021/08/27 11:30:30;;;;;;;4.00;3.03;;;17.70;99.60;;;;;;6234140;22;21031;-88
2021/08/27 11:32:58;;;;;;;2.97;2.73;;;17.30;99.20;;;;;;6233516;22;20401;-88
2021/08/27 11:35:24;;;;;;;2.93;2.73;;;17.00;99.50;;;;;;6258503;22;20404;-88
2021/08/27 11:38:05;;;;;;;3.53;2.70;;;17.10;99.90;;;;;;6233384;22;20450;-88
2021/08/27 11:40:38;;;;;;;2.40;1.73;;;18.10;99.90;;;;;;6259155;22;20397;-88
2021/08/27 11:43:03;;;;;;;3.10;1.80;;;18.80;97.10;;;;;;6257213;22;20517;-88
2021/08/27 11:45:32;;;;;;;2.33;2.13;;;18.90;95.50;;;;;;6233034;22;20472;-88
2021/08/27 11:48:05;;;;;;;2.83;2.07;;;18.40;96.80;;;;;;6259939;22;20730;-88
2021/08/27 11:50:39;;;;;;;2.23;2.03;;;18.10;98.00;;;;;;6258154;22;20397;-88
2021/08/27 11:53:07;;;;;;;2.97;2.33;;;17.90;97.40;;;;;;6258724;22;20397;-88
2021/08/27 11:55:40;;;;;;;2.30;1.90;;;17.30;96.50;;;;;;6259934;22;20879;-88
2021/08/27 11:58:06;;;;;;;3.20;2.30;;;17.10;97.90;;;;;;6260320;22;20450;-88
2021/08/27 12:00:37;;;;;;;2.10;1.90;;;17.30;98.90;;;;;;6260265;22;20393;-88
2021/08/27 12:03:05;;;;;;;3.67;2.27;;;17.30;99.40;;;;;;6259633;22;20295;-88
2021/08/27 12:05:32;;;;;;;3.27;2.50;;;17.20;99.80;;;;;;6260127;22;20435;-87
2021/08/27 12:08:16;;;;;;;6.87;2.47;;;17.20;99.10;;;;;;6259898;22;20919;-88
2021/08/27 12:10:44;;;;;;;2.63;2.03;;;17.10;99.40;;;;;;6260419;22;20425;-88
2021/08/27 12:13:11;;;;;;;2.23;2.00;;;17.40;99.10;;;;;;6260648;22;20404;-88
2021/08/27 12:15:45;;;;;;;4.77;2.13;;;17.30;98.90;;;;;;6259787;22;20389;-88
2021/08/27 12:18:13;;;;;;;3.53;2.27;;;17.30;99.00;;;;;;6260153;22;20401;-88
2021/08/27 12:20:48;;;;;;;2.50;2.17;;;17.60;98.80;;;;;;6233988;22;20950;-87
2021/08/27 12:23:18;;;;;;;3.60;2.03;;;17.60;97.90;;;;;;6259648;22;20779;-88
2021/08/27 12:26:19;;;;;;;2.50;1.97;;;17.60;98.70;;;;;;6260332;22;20393;-88
2021/08/27 12:28:44;;;;;;;1.90;1.80;;;18.60;98.90;;;;;;6262936;22;20427;-88
2021/08/27 12:31:09;;;;;;;3.00;2.33;;;19.60;95.70;;;;;;6258029;22;20421;-89
2021/08/27 12:33:40;;;;;;;2.40;1.70;;;18.70;96.70;;;;;;6258769;22;20506;-90
2021/08/27 12:36:07;;;;;;;3.37;2.07;;;18.30;97.50;;;;;;6258018;22;20173;-91
2021/08/27 12:38:36;;;;;;;2.10;2.00;;;17.90;98.20;;;;;;6260283;22;20849;-90
2021/08/27 12:41:13;;;;;;;2.60;2.13;;;18.00;98.60;;;;;;6258772;22;20381;-90
2021/08/27 12:43:38;;;;;;;3.27;2.40;;;17.70;99.20;;;;;;6257757;22;20444;-89
2021/08/27 12:46:04;;;;;;;2.10;1.90;;;17.70;98.50;;;;;;6259165;22;20447;-90
2021/08/27 12:48:37;;;;;;;2.53;1.90;;;17.90;98.50;;;;;;6259565;22;20166;-91
2021/08/27 12:51:09;;;;;;;2.90;2.03;;;18.10;99.00;;;;;;6259307;22;20184;-90
2021/08/27 12:53:40;;;;;;;3.03;1.70;;;18.20;97.80;;;;;;6258771;22;20416;-89
2021/08/27 12:56:07;;;;;;;3.37;2.10;;;17.70;97.80;;;;;;6260189;22;20397;-90